createdAt,value
2023-02-07T00:01:52.522Z,87.27
2023-02-07T00:04:20.897Z,87.10
2023-02-07T00:06:49.208Z,87.20
2023-02-07T00:09:17.999Z,87.34
2023-02-07T00:11:46.234Z,87.20
2023-02-07T00:14:15.258Z,86.65
2023-02-07T00:16:43.533Z,86.84
2023-02-07T00:19:11.845Z,87.07
2023-02-07T00:21:40.392Z,86.97
2023-02-07T00:24:09.156Z,86.65
2023-02-07T00:26:38.364Z,86.69
2023-02-07T00:29:07.468Z,86.74
2023-02-07T00:31:36.573Z,86.70
2023-02-07T00:34:07.166Z,86.68
2023-02-07T00:36:36.685Z,86.58
2023-02-07T00:39:07.090Z,86.30
2023-02-07T00:41:35.511Z,85.93
2023-02-07T00:44:03.893Z,85.79
2023-02-07T00:46:34.186Z,85.57
2023-02-07T00:49:02.609Z,85.72
2023-02-07T00:51:31.116Z,85.79
2023-02-07T00:53:59.930Z,85.74
2023-02-07T00:56:29.474Z,85.37
2023-02-07T00:58:59.806Z,85.25
2023-02-07T01:01:28.205Z,85.20
2023-02-07T01:03:58.572Z,85.39
2023-02-07T01:06:28.248Z,84.62
2023-02-07T01:09:01.440Z,84.80
2023-02-07T01:11:30.331Z,84.83
2023-02-07T01:14:01.869Z,84.69
2023-02-07T01:16:32.501Z,84.56
2023-02-07T01:19:07.994Z,84.12
2023-02-07T01:21:36.494Z,83.96
2023-02-07T01:24:06.936Z,83.69
2023-02-07T01:26:36.186Z,84.14
2023-02-07T01:29:04.791Z,84.09
2023-02-07T01:31:33.612Z,83.88
2023-02-07T01:34:05.359Z,83.81
2023-02-07T01:36:37.077Z,84.14
2023-02-07T01:39:06.618Z,84.10
2023-02-07T01:41:35.732Z,83.53
2023-02-07T01:44:08.393Z,83.53
2023-02-07T01:46:38.734Z,83.02
2023-02-07T01:49:10.725Z,83.06
2023-02-07T01:51:41.126Z,83.42
2023-02-07T01:54:10.475Z,82.90
2023-02-07T01:56:41.611Z,82.38
2023-02-07T01:59:10.671Z,82.65
2023-02-07T02:01:42.175Z,82.41
2023-02-07T02:04:10.843Z,82.07
2023-02-07T02:06:41.106Z,82.08
2023-02-07T02:09:12.020Z,81.96
2023-02-07T02:11:51.494Z,82.41
2023-02-07T02:14:36.590Z,82.06
2023-02-07T02:17:15.806Z,81.35
2023-02-07T02:20:15.144Z,81.32
2023-02-07T02:22:59.464Z,81.28
2023-02-07T02:25:55.479Z,81.31
2023-02-07T02:28:36.104Z,81.33
2023-02-07T02:31:50.500Z,81.72
2023-02-07T02:34:28.148Z,81.57
2023-02-07T02:37:25.384Z,81.35
2023-02-07T02:40:01.158Z,81.56
2023-02-07T02:42:42.533Z,81.62
2023-02-07T02:45:18.913Z,81.02
2023-02-07T02:47:48.710Z,80.41
2023-02-07T02:50:23.603Z,80.26
2023-02-07T02:52:52.234Z,80.55
2023-02-07T02:56:05.475Z,80.60
2023-02-07T02:58:34.289Z,80.38
2023-02-07T03:01:29.407Z,79.83
2023-02-07T03:04:36.123Z,79.97
2023-02-07T03:07:32.464Z,79.98
2023-02-07T03:10:12.210Z,79.94
2023-02-07T03:12:57.074Z,79.47
2023-02-07T03:15:28.692Z,79.21
2023-02-07T03:18:00.364Z,79.21
2023-02-07T03:20:46.095Z,79.52
2023-02-07T03:23:14.448Z,79.85
2023-02-07T03:25:42.691Z,79.86
2023-02-07T03:28:11.507Z,79.83
2023-02-07T03:30:40.384Z,79.45
2023-02-07T03:33:10.177Z,79.50
2023-02-07T03:35:38.648Z,79.29
2023-02-07T03:38:07.178Z,79.09
2023-02-07T03:40:37.943Z,79.73
2023-02-07T03:43:13.533Z,79.98
2023-02-07T03:45:41.969Z,79.69
2023-02-07T03:48:10.493Z,79.73
2023-02-07T03:50:39.520Z,79.73
2023-02-07T03:53:08.772Z,79.61
2023-02-07T03:55:37.599Z,79.82
2023-02-07T03:58:07.561Z,79.75
2023-02-07T04:00:36.748Z,79.51
2023-02-07T04:03:05.087Z,79.65
2023-02-07T04:05:33.939Z,80.02
2023-02-07T04:08:02.458Z,80.20
2023-02-07T04:10:31.218Z,80.35
2023-02-07T04:13:00.528Z,80.19
2023-02-07T04:15:29.460Z,79.91
2023-02-07T04:17:57.793Z,79.21
2023-02-07T04:20:26.059Z,79.18
2023-02-07T04:22:54.434Z,79.00
2023-02-07T04:25:23.057Z,79.07
2023-02-07T04:27:53.150Z,79.02
2023-02-07T04:30:21.739Z,78.91
2023-02-07T04:32:50.562Z,78.82
2023-02-07T04:35:18.786Z,78.52
2023-02-07T04:37:47.060Z,78.71
2023-02-07T04:40:15.947Z,78.44
2023-02-07T04:42:44.412Z,78.01
2023-02-07T04:45:12.953Z,77.79
2023-02-07T04:47:41.309Z,77.15
2023-02-07T04:50:10.363Z,77.01
2023-02-07T04:52:40.602Z,76.89
2023-02-07T04:55:09.285Z,76.58
2023-02-07T04:57:37.500Z,76.15
2023-02-07T05:00:06.503Z,76.18
2023-02-07T05:02:35.379Z,76.39
2023-02-07T05:05:03.634Z,76.05
2023-02-07T05:07:31.930Z,75.70
2023-02-07T05:10:01.272Z,75.54
2023-02-07T05:12:30.655Z,75.57
2023-02-07T05:14:59.376Z,75.23
2023-02-07T05:17:27.857Z,75.62
2023-02-07T05:19:57.791Z,75.71
2023-02-07T05:22:26.353Z,75.75
2023-02-07T05:24:54.732Z,75.27
2023-02-07T05:27:23.234Z,75.26
2023-02-07T05:29:52.014Z,75.07
2023-02-07T05:32:39.021Z,74.44
2023-02-07T05:35:07.973Z,74.33
2023-02-07T05:37:36.927Z,74.19
2023-02-07T05:40:05.778Z,73.96
2023-02-07T05:42:34.264Z,74.22
2023-02-07T05:45:02.670Z,73.66
2023-02-07T05:47:31.519Z,73.84
2023-02-07T05:49:59.901Z,73.87
2023-02-07T05:52:28.208Z,73.73
2023-02-07T05:54:57.130Z,73.60
2023-02-07T05:57:25.510Z,73.75
2023-02-07T05:59:54.278Z,73.52
2023-02-07T06:02:23.179Z,73.32
2023-02-07T06:04:51.422Z,73.29
2023-02-07T06:07:19.805Z,72.84
2023-02-07T06:09:48.521Z,73.20
2023-02-07T06:12:17.594Z,73.67
2023-02-07T06:14:46.163Z,73.67
2023-02-07T06:17:14.993Z,73.46
2023-02-07T06:19:44.140Z,73.40
2023-02-07T06:22:12.393Z,73.19
2023-02-07T06:24:41.197Z,73.08
2023-02-07T06:27:09.978Z,72.88
2023-02-07T06:29:38.475Z,72.53
2023-02-07T06:32:06.945Z,72.28
2023-02-07T06:34:35.941Z,72.23
2023-02-07T06:37:05.300Z,72.39
2023-02-07T06:39:34.609Z,72.16
2023-02-07T06:42:03.546Z,71.83
2023-02-07T06:44:32.966Z,71.75
2023-02-07T06:47:01.416Z,71.41
2023-02-07T06:49:29.842Z,71.18
2023-02-07T06:51:59.370Z,71.28
2023-02-07T06:54:27.843Z,71.17
2023-02-07T06:56:56.126Z,71.31
2023-02-07T06:59:24.777Z,71.03
2023-02-07T07:01:53.422Z,70.50
2023-02-07T07:04:21.800Z,70.24
2023-02-07T07:06:50.419Z,70.37
2023-02-07T07:09:19.206Z,69.56
2023-02-07T07:11:47.619Z,69.23
2023-02-07T07:14:16.031Z,69.69
2023-02-07T07:16:44.298Z,69.67
2023-02-07T07:19:15.199Z,69.76
2023-02-07T07:21:43.691Z,69.46
2023-02-07T07:24:12.119Z,68.63
2023-02-07T07:26:49.467Z,68.51
2023-02-07T07:29:18.917Z,68.36
2023-02-07T07:31:47.184Z,68.27
2023-02-07T07:34:15.825Z,68.23
2023-02-07T07:36:44.880Z,67.62
2023-02-07T07:39:14.882Z,67.59
2023-02-07T07:41:45.458Z,67.31
2023-02-07T07:44:14.162Z,67.47
2023-02-07T07:46:44.143Z,66.84
2023-02-07T07:49:14.192Z,66.29
2023-02-07T07:51:42.452Z,65.51
2023-02-07T07:54:11.613Z,65.11
2023-02-07T07:56:40.224Z,64.38
2023-02-07T07:59:12.207Z,64.59
2023-02-07T08:01:48.363Z,64.44
2023-02-07T08:04:16.587Z,64.06
2023-02-07T08:06:45.906Z,64.37
2023-02-07T08:09:16.870Z,64.28
2023-02-07T08:11:45.253Z,63.82
2023-02-07T08:14:13.482Z,63.73
2023-02-07T08:16:41.780Z,63.53
2023-02-07T08:19:09.926Z,62.87
2023-02-07T08:21:38.216Z,63.47
2023-02-07T08:24:06.915Z,63.26
2023-02-07T08:26:35.524Z,63.40
2023-02-07T08:29:03.798Z,62.88
2023-02-07T08:31:32.885Z,62.10
2023-02-07T08:34:01.156Z,61.84
2023-02-07T08:36:29.894Z,59.99
2023-02-07T08:38:58.164Z,60.20
2023-02-07T08:41:26.603Z,60.75
2023-02-07T08:43:54.877Z,60.23
2023-02-07T08:46:23.137Z,60.53
2023-02-07T08:48:51.520Z,61.11
2023-02-07T08:51:19.728Z,61.41
2023-02-07T08:53:48.077Z,61.17
2023-02-07T08:56:16.451Z,60.76
2023-02-07T08:58:45.766Z,61.08
2023-02-07T09:01:14.080Z,61.25
2023-02-07T09:03:42.542Z,61.62
2023-02-07T09:06:11.116Z,61.83
2023-02-07T09:08:39.597Z,61.65
2023-02-07T09:11:13.243Z,61.44
2023-02-07T09:13:45.378Z,60.85
2023-02-07T09:16:14.610Z,60.58
2023-02-07T09:18:43.204Z,60.27
2023-02-07T09:21:12.324Z,60.57
2023-02-07T09:23:41.242Z,60.14
2023-02-07T09:26:09.901Z,60.08
2023-02-07T09:28:39.512Z,59.76
2023-02-07T09:31:12.044Z,59.65
2023-02-07T09:33:41.821Z,59.67
2023-02-07T09:36:24.523Z,59.65
2023-02-07T09:38:53.078Z,60.17
2023-02-07T09:42:05.348Z,60.60
2023-02-07T09:45:08.149Z,60.85
2023-02-07T09:47:37.817Z,60.87
2023-02-07T09:50:16.825Z,60.38
2023-02-07T09:53:16.332Z,60.59
2023-02-07T09:55:50.345Z,60.75
2023-02-07T09:58:45.083Z,60.59
2023-02-07T10:01:15.124Z,60.51
2023-02-07T10:03:49.329Z,61.00
2023-02-07T10:06:22.351Z,60.74
2023-02-07T10:08:52.355Z,60.81
2023-02-07T10:11:27.354Z,60.81
2023-02-07T10:14:29.128Z,61.19
2023-02-07T10:17:03.269Z,60.80
2023-02-07T10:20:23.236Z,60.39
2023-02-07T10:23:06.488Z,60.62
2023-02-07T10:25:48.683Z,60.41
2023-02-07T10:28:28.396Z,60.53
2023-02-07T10:30:58.797Z,60.27
2023-02-07T10:33:32.853Z,60.06
2023-02-07T10:36:03.655Z,59.85
2023-02-07T10:38:44.339Z,59.13
2023-02-07T10:41:39.222Z,59.18
2023-02-07T10:44:11.817Z,60.08
2023-02-07T10:46:41.741Z,59.86
2023-02-07T10:49:24.829Z,59.13
2023-02-07T10:51:58.081Z,59.45
2023-02-07T10:54:27.262Z,59.32
2023-02-07T10:57:01.682Z,59.85
2023-02-07T10:59:46.637Z,60.28
2023-02-07T11:02:33.338Z,60.41
2023-02-07T11:05:17.065Z,60.83
2023-02-07T11:08:03.677Z,60.37
2023-02-07T11:10:39.800Z,59.89
2023-02-07T11:13:29.189Z,59.88
2023-02-07T11:16:10.782Z,59.61
2023-02-07T11:18:59.642Z,58.81
2023-02-07T11:21:35.326Z,57.90
2023-02-07T11:24:06.560Z,57.30
2023-02-07T11:26:35.678Z,57.68
2023-02-07T11:29:07.987Z,57.52
2023-02-07T11:31:37.341Z,57.04
2023-02-07T11:34:30.162Z,57.16
2023-02-07T11:37:24.322Z,57.73
2023-02-07T11:39:57.420Z,57.47
2023-02-07T11:42:34.759Z,57.34
2023-02-07T11:45:12.748Z,57.59
2023-02-07T11:47:42.685Z,57.09
2023-02-07T11:50:20.854Z,56.94
2023-02-07T11:52:55.801Z,56.40
2023-02-07T11:55:35.987Z,55.89
2023-02-07T11:58:09.488Z,56.50
2023-02-07T12:00:38.475Z,56.67
2023-02-07T12:03:11.563Z,56.51
2023-02-07T12:05:42.203Z,56.62
2023-02-07T12:08:17.008Z,56.74
2023-02-07T12:10:51.741Z,56.88
2023-02-07T12:13:29.786Z,56.98
2023-02-07T12:16:04.453Z,57.57
2023-02-07T12:18:41.490Z,57.62
2023-02-07T12:21:24.456Z,57.14
2023-02-07T12:24:16.331Z,56.68
2023-02-07T12:26:47.413Z,55.66
2023-02-07T12:29:30.947Z,55.66
2023-02-07T12:32:18.062Z,56.10
2023-02-07T12:34:58.542Z,55.90
2023-02-07T12:37:43.875Z,55.33
2023-02-07T12:40:21.425Z,55.50
2023-02-07T12:42:55.082Z,56.25
2023-02-07T12:45:54.791Z,58.35
2023-02-07T12:48:42.193Z,58.07
2023-02-07T12:51:25.326Z,58.16
2023-02-07T12:53:57.721Z,59.29
2023-02-07T12:56:25.895Z,59.56
2023-02-07T12:59:22.054Z,59.02
2023-02-07T13:02:16.945Z,59.03
2023-02-07T13:05:38.442Z,59.09
2023-02-07T13:08:25.423Z,59.15
2023-02-07T13:11:25.842Z,59.49
2023-02-07T13:14:01.093Z,59.73
2023-02-07T13:16:38.683Z,59.62
2023-02-07T13:19:39.708Z,59.99
2023-02-07T13:22:23.186Z,60.37
2023-02-07T13:24:51.504Z,59.42
2023-02-07T13:27:20.799Z,59.73
2023-02-07T13:29:50.275Z,59.91
2023-02-07T13:32:23.058Z,59.55
2023-02-07T13:34:54.310Z,59.81
2023-02-07T13:37:25.686Z,59.97
2023-02-07T13:39:58.972Z,59.86
2023-02-07T13:42:48.698Z,60.32
2023-02-07T13:45:33.510Z,60.45
2023-02-07T13:48:13.861Z,61.12
2023-02-07T13:50:48.151Z,61.17
2023-02-07T13:53:44.929Z,60.35
2023-02-07T13:56:32.769Z,60.29
2023-02-07T13:59:20.226Z,60.50
2023-02-07T14:01:54.641Z,60.49
2023-02-07T14:04:23.119Z,60.42
2023-02-07T14:07:05.492Z,60.67
2023-02-07T14:10:00.689Z,60.48
2023-02-07T14:12:35.934Z,60.75
2023-02-07T14:15:30.732Z,61.33
2023-02-07T14:18:03.869Z,61.86
2023-02-07T14:20:35.824Z,61.80
2023-02-07T14:23:22.142Z,61.42
2023-02-07T14:25:51.990Z,61.66
2023-02-07T14:28:33.608Z,61.47
2023-02-07T14:31:19.947Z,61.33
2023-02-07T14:34:15.037Z,60.89
2023-02-07T14:36:43.494Z,61.22
2023-02-07T14:39:12.003Z,61.69
2023-02-07T14:41:41.943Z,61.76
2023-02-07T14:44:40.178Z,62.09
2023-02-07T14:47:08.978Z,62.20
2023-02-07T14:49:44.667Z,62.40
2023-02-07T14:52:22.791Z,61.98
2023-02-07T14:55:03.026Z,61.84
2023-02-07T14:57:56.874Z,61.94
2023-02-07T15:00:41.377Z,61.33
2023-02-07T15:03:14.518Z,61.50
2023-02-07T15:05:52.557Z,61.59
2023-02-07T15:08:25.945Z,62.07
2023-02-07T15:11:05.136Z,62.28
2023-02-07T15:13:41.400Z,62.26
2023-02-07T15:16:12.725Z,62.35
2023-02-07T15:19:03.207Z,62.36
2023-02-07T15:21:31.738Z,62.46
2023-02-07T15:24:04.929Z,62.47
2023-02-07T15:26:34.410Z,62.83
2023-02-07T15:29:07.580Z,62.79
2023-02-07T15:31:40.972Z,62.83
2023-02-07T15:34:14.337Z,63.41
2023-02-07T15:36:46.031Z,63.71
2023-02-07T15:39:20.209Z,64.03
2023-02-07T15:41:49.767Z,64.32
2023-02-07T15:44:22.946Z,64.57
2023-02-07T15:46:57.052Z,64.69
2023-02-07T15:49:32.084Z,64.82
2023-02-07T15:52:11.295Z,65.19
2023-02-07T15:54:44.038Z,65.18
2023-02-07T15:57:18.191Z,65.17
2023-02-07T15:59:46.748Z,65.32
2023-02-07T16:02:24.512Z,65.56
2023-02-07T16:04:54.939Z,65.83
2023-02-07T16:07:23.336Z,65.93
2023-02-07T16:09:54.107Z,66.10
2023-02-07T16:12:48.053Z,66.42
2023-02-07T16:15:24.039Z,66.86
2023-02-07T16:17:52.313Z,66.95
2023-02-07T16:20:20.654Z,67.00
2023-02-07T16:22:49.847Z,67.23
2023-02-07T16:25:22.361Z,67.59
2023-02-07T16:27:52.313Z,67.74
2023-02-07T16:30:23.870Z,67.96
2023-02-07T16:32:52.374Z,68.12
2023-02-07T16:35:26.996Z,68.30
2023-02-07T16:37:56.542Z,68.51
2023-02-07T16:40:26.683Z,68.63
2023-02-07T16:42:55.204Z,68.52
2023-02-07T16:45:25.687Z,68.47
2023-02-07T16:47:54.536Z,68.63
2023-02-07T16:50:24.761Z,68.66
2023-02-07T16:52:54.794Z,68.50
2023-02-07T16:55:23.930Z,68.38
2023-02-07T16:57:52.847Z,68.65
2023-02-07T17:00:22.901Z,68.79
2023-02-07T17:02:51.758Z,68.93
2023-02-07T17:05:21.347Z,68.88
2023-02-07T17:07:50.560Z,68.75
2023-02-07T17:10:29.689Z,68.81
2023-02-07T17:13:00.009Z,68.84
2023-02-07T17:15:28.327Z,69.10
2023-02-07T17:17:58.749Z,69.32
2023-02-07T17:20:31.563Z,69.31
2023-02-07T17:23:00.135Z,69.47
2023-02-07T17:25:29.395Z,69.56
2023-02-07T17:27:58.257Z,69.64
2023-02-07T17:30:27.763Z,69.65
2023-02-07T17:32:56.978Z,69.91
2023-02-07T17:35:26.123Z,70.03
2023-02-07T17:37:54.556Z,70.16
2023-02-07T17:40:22.865Z,70.20
2023-02-07T17:42:51.459Z,70.36
2023-02-07T17:45:19.737Z,70.65
2023-02-07T17:47:48.077Z,70.80
2023-02-07T17:50:27.489Z,71.02
2023-02-07T17:52:56.961Z,71.32
2023-02-07T17:55:26.256Z,71.58
2023-02-07T17:57:54.886Z,71.74
2023-02-07T18:00:29.569Z,71.75
2023-02-07T18:02:58.153Z,72.07
2023-02-07T18:05:27.013Z,72.49
2023-02-07T18:07:55.708Z,72.65
2023-02-07T18:10:32.212Z,72.81
2023-02-07T18:13:04.303Z,72.90
2023-02-07T18:15:32.644Z,72.85
2023-02-07T18:18:01.513Z,72.82
2023-02-07T18:20:31.626Z,73.26
2023-02-07T18:23:00.356Z,73.35
2023-02-07T18:25:29.808Z,73.48
2023-02-07T18:27:58.616Z,73.60
2023-02-07T18:30:27.850Z,73.82
2023-02-07T18:32:56.180Z,73.85
2023-02-07T18:35:24.903Z,73.79
2023-02-07T18:37:54.023Z,74.05
2023-02-07T18:40:22.450Z,74.01
2023-02-07T18:42:50.929Z,74.16
2023-02-07T18:45:20.400Z,73.88
2023-02-07T18:47:49.767Z,73.98
2023-02-07T18:50:19.912Z,73.31
2023-02-07T18:52:48.314Z,73.49
2023-02-07T18:55:16.640Z,73.75
2023-02-07T18:57:45.136Z,73.62
2023-02-07T19:00:14.199Z,73.72
2023-02-07T19:02:43.021Z,74.00
2023-02-07T19:05:11.432Z,74.04
2023-02-07T19:07:40.006Z,74.14
2023-02-07T19:10:12.482Z,74.23
2023-02-07T19:12:40.833Z,74.48
2023-02-07T19:15:10.846Z,74.53
2023-02-07T19:17:40.273Z,74.20
2023-02-07T19:20:11.684Z,74.16
2023-02-07T19:22:41.566Z,74.08
2023-02-07T19:25:11.380Z,74.02
2023-02-07T19:27:39.659Z,74.38
2023-02-07T19:30:08.540Z,75.06
2023-02-07T19:32:38.859Z,75.46
2023-02-07T19:35:07.482Z,76.03
2023-02-07T19:37:36.505Z,76.17
2023-02-07T19:40:05.310Z,76.28
2023-02-07T19:42:34.371Z,76.30
2023-02-07T19:45:05.250Z,76.34
2023-02-07T19:47:33.716Z,76.88
2023-02-07T19:50:03.670Z,77.33
2023-02-07T19:52:32.410Z,77.66
2023-02-07T19:55:01.147Z,77.93
2023-02-07T19:57:31.925Z,78.10
2023-02-07T20:00:01.617Z,78.39
2023-02-07T20:02:33.139Z,78.67
2023-02-07T20:05:02.591Z,78.99
2023-02-07T20:07:31.159Z,79.28
2023-02-07T20:10:01.176Z,79.63
2023-02-07T20:12:34.203Z,80.18
2023-02-07T20:15:04.783Z,80.80
2023-02-07T20:17:35.306Z,81.37
2023-02-07T20:20:05.679Z,81.62
2023-02-07T20:22:35.174Z,81.46
2023-02-07T20:25:03.678Z,81.37
2023-02-07T20:27:38.143Z,81.68
2023-02-07T20:30:07.581Z,80.59
2023-02-07T20:32:36.594Z,80.36
2023-02-07T20:35:05.542Z,80.61
2023-02-07T20:37:35.116Z,80.91
2023-02-07T20:40:03.927Z,81.17
2023-02-07T20:42:32.499Z,81.41
2023-02-07T20:45:00.894Z,81.52
2023-02-07T20:47:29.967Z,81.05
2023-02-07T20:49:58.509Z,80.87
2023-02-07T20:52:26.894Z,80.78
2023-02-07T20:54:55.898Z,80.75
2023-02-07T20:57:24.288Z,81.08
2023-02-07T20:59:52.736Z,81.43
2023-02-07T21:02:20.970Z,81.53
2023-02-07T21:04:49.284Z,81.28
2023-02-07T21:07:17.868Z,81.25
2023-02-07T21:09:46.302Z,81.54
2023-02-07T21:12:14.900Z,81.77
2023-02-07T21:14:43.743Z,81.61
2023-02-07T21:17:12.525Z,80.99
2023-02-07T21:19:41.030Z,80.99
2023-02-07T21:22:09.711Z,80.87
2023-02-07T21:24:38.160Z,80.96
2023-02-07T21:27:06.468Z,80.87
2023-02-07T21:29:36.683Z,80.24
2023-02-07T21:32:05.928Z,79.65
2023-02-07T21:34:34.429Z,79.29
2023-02-07T21:37:02.797Z,79.28
2023-02-07T21:39:31.347Z,79.42
2023-02-07T21:41:59.786Z,78.58
2023-02-07T21:44:29.774Z,78.62
2023-02-07T21:46:58.550Z,78.76
2023-02-07T21:49:26.831Z,78.82
2023-02-07T21:51:55.574Z,79.15
2023-02-07T21:54:24.386Z,79.36
2023-02-07T21:56:53.151Z,79.45
2023-02-07T21:59:22.619Z,79.38
2023-02-07T22:01:51.555Z,79.35
2023-02-07T22:04:20.166Z,79.41
2023-02-07T22:06:49.694Z,79.63
2023-02-07T22:09:19.017Z,79.79
2023-02-07T22:11:47.814Z,79.51
2023-02-07T22:14:16.333Z,79.62
2023-02-07T22:16:44.588Z,79.76
2023-02-07T22:19:14.083Z,79.99
2023-02-07T22:21:44.519Z,80.23
2023-02-07T22:24:14.209Z,80.49
2023-02-07T22:26:43.749Z,80.71
2023-02-07T22:29:12.236Z,81.11
2023-02-07T22:31:41.513Z,81.28
2023-02-07T22:34:13.815Z,81.76
2023-02-07T22:36:45.724Z,81.77
2023-02-07T22:39:16.347Z,82.02
2023-02-07T22:41:45.202Z,82.27
2023-02-07T22:44:13.774Z,82.67
2023-02-07T22:46:43.567Z,82.88
2023-02-07T22:49:12.719Z,83.46
2023-02-07T22:51:41.263Z,83.96
2023-02-07T22:54:10.832Z,84.44
2023-02-07T22:56:39.269Z,84.70
2023-02-07T22:59:08.440Z,85.17
2023-02-07T23:01:39.242Z,85.78
2023-02-07T23:04:11.524Z,86.06
2023-02-07T23:06:40.151Z,86.86
2023-02-07T23:09:08.570Z,87.66
2023-02-07T23:11:37.506Z,88.13
2023-02-07T23:14:05.948Z,88.49
2023-02-07T23:16:34.895Z,88.85
2023-02-07T23:19:11.503Z,89.27
2023-02-07T23:21:39.987Z,89.37
2023-02-07T23:24:08.521Z,89.71
2023-02-07T23:26:37.039Z,90.13
2023-02-07T23:29:05.409Z,90.55
2023-02-07T23:31:34.066Z,90.77
2023-02-07T23:34:02.888Z,91.06
2023-02-07T23:36:31.427Z,91.36
2023-02-07T23:39:00.059Z,91.84
2023-02-07T23:41:29.345Z,92.68
2023-02-07T23:43:59.620Z,93.93
2023-02-07T23:46:28.031Z,94.35
2023-02-07T23:48:59.285Z,94.92
2023-02-07T23:51:29.264Z,95.52
2023-02-07T23:53:58.416Z,95.87
2023-02-07T23:56:27.972Z,95.90
2023-02-07T23:58:56.600Z,96.08
